Time;durP1;ratioP1;P1;durP2;ratioP2;P2;SDS_P1;SDS_P2;PMS_P1;PMS_P2;Temp;Humidity;BMP_temperature;BMP_pressure;BME280_temperature;BME280_humidity;BME280_pressure;Samples;Min_cycle;Max_cycle;Signal;HPM_P1;HPM_P2
2022/12/03 00:00:13;;;;;;;5.63;5.13;;;19.00;40.60;;;;;;4979762;28;20416;-66
2022/12/03 00:02:39;;;;;;;5.43;5.03;;;19.00;40.60;;;;;;4982978;28;20327;-66
2022/12/03 00:05:04;;;;;;;5.60;5.20;;;19.00;40.60;;;;;;4983889;28;20578;-67
2022/12/03 00:07:30;;;;;;;5.37;4.97;;;19.00;40.60;;;;;;4984487;28;20246;-66
2022/12/03 00:09:55;;;;;;;4.93;4.63;;;19.00;40.60;;;;;;4999005;28;20251;-66
2022/12/03 00:12:21;;;;;;;4.27;4.00;;;19.00;40.60;;;;;;4999948;28;20498;-66
2022/12/03 00:14:46;;;;;;;5.10;4.70;;;19.00;40.60;;;;;;4997848;28;20599;-66
2022/12/03 00:17:12;;;;;;;4.40;4.10;;;19.00;40.50;;;;;;4987682;28;20246;-66
2022/12/03 00:19:37;;;;;;;5.20;4.80;;;19.00;40.60;;;;;;4978537;28;20223;-66
2022/12/03 00:22:03;;;;;;;5.07;4.67;;;19.00;40.60;;;;;;4980084;28;20307;-66
2022/12/03 00:24:28;;;;;;;4.70;4.40;;;19.00;40.50;;;;;;4986668;28;20478;-66
2022/12/03 00:26:54;;;;;;;4.63;4.33;;;19.00;40.60;;;;;;4976003;28;21285;-66
2022/12/03 00:29:20;;;;;;;4.53;4.23;;;19.00;40.60;;;;;;4984127;28;20220;-66
2022/12/03 00:31:45;;;;;;;4.73;4.40;;;19.00;40.60;;;;;;4980164;28;20273;-66
2022/12/03 00:34:11;;;;;;;5.00;4.60;;;19.00;40.50;;;;;;4976470;28;20223;-67
2022/12/03 00:36:37;;;;;;;4.47;4.17;;;19.00;40.50;;;;;;4988913;28;20672;-66
2022/12/03 00:39:02;;;;;;;3.90;3.70;;;19.00;40.50;;;;;;4986411;28;20227;-66
2022/12/03 00:41:28;;;;;;;5.00;4.70;;;19.00;40.50;;;;;;4992576;28;20706;-66
2022/12/03 00:43:56;;;;;;;4.53;4.23;;;19.00;40.50;;;;;;4994438;28;20557;-66
2022/12/03 00:46:23;;;;;;;4.57;4.30;;;19.00;40.50;;;;;;4998608;28;20219;-66
2022/12/03 00:48:48;;;;;;;5.07;4.77;;;19.00;40.50;;;;;;5001425;28;20470;-66
2022/12/03 00:51:14;;;;;;;5.50;5.00;;;19.00;40.50;;;;;;5000730;28;20432;-67
2022/12/03 00:53:39;;;;;;;4.37;4.07;;;19.00;40.50;;;;;;4998958;28;20750;-66
2022/12/03 00:56:05;;;;;;;5.20;4.80;;;19.00;40.50;;;;;;5000426;28;20259;-66
2022/12/03 00:58:31;;;;;;;5.27;4.87;;;19.00;40.50;;;;;;4982868;28;20225;-66
2022/12/03 01:00:56;;;;;;;4.23;4.03;;;19.00;40.50;;;;;;4974945;28;21118;-66
2022/12/03 01:03:22;;;;;;;4.53;4.23;;;19.00;40.50;;;;;;4983182;28;20259;-66
2022/12/03 01:05:47;;;;;;;4.90;4.60;;;19.00;40.60;;;;;;4981002;28;20311;-66
2022/12/03 01:08:13;;;;;;;4.50;4.17;;;19.00;40.50;;;;;;4981873;28;20247;-66
2022/12/03 01:10:38;;;;;;;4.50;4.10;;;19.00;40.50;;;;;;4988449;28;20219;-65
2022/12/03 01:13:04;;;;;;;3.67;3.47;;;19.00;40.50;;;;;;4986964;28;20263;-66
2022/12/03 01:15:29;;;;;;;4.20;3.90;;;19.00;40.50;;;;;;4978701;28;20224;-66
2022/12/03 01:17:55;;;;;;;4.10;3.80;;;19.00;40.50;;;;;;4976555;28;20257;-66
2022/12/03 01:20:20;;;;;;;4.33;4.03;;;19.00;40.40;;;;;;4984822;28;20698;-66
2022/12/03 01:22:46;;;;;;;4.87;4.53;;;19.00;40.40;;;;;;4987203;28;20741;-66
2022/12/03 01:25:11;;;;;;;3.97;3.67;;;19.00;40.40;;;;;;4987411;28;20685;-67
2022/12/03 01:27:37;;;;;;;4.00;3.70;;;19.00;40.50;;;;;;4997604;28;20217;-66
2022/12/03 01:30:04;;;;;;;3.80;3.50;;;19.00;40.50;;;;;;5001334;28;20219;-66
2022/12/03 01:32:29;;;;;;;4.47;4.17;;;19.00;40.50;;;;;;4989429;28;20281;-66
2022/12/03 01:34:55;;;;;;;4.47;4.07;;;19.00;40.50;;;;;;4976553;28;20416;-66
2022/12/03 01:37:23;;;;;;;3.93;3.63;;;19.00;40.40;;;;;;4977283;28;20579;-66
2022/12/03 01:39:50;;;;;;;4.30;4.00;;;19.00;40.40;;;;;;4994340;28;20699;-66
2022/12/03 01:42:31;;;;;;;4.10;3.90;;;19.00;40.50;;;;;;4990809;28;20465;-66
2022/12/03 01:44:59;;;;;;;4.07;3.80;;;19.00;40.40;;;;;;4980795;28;20426;-66
2022/12/03 01:47:30;;;;;;;4.20;3.90;;;19.00;40.40;;;;;;4979876;28;20470;-66
2022/12/03 01:50:00;;;;;;;3.80;3.60;;;19.00;40.30;;;;;;4982459;28;20483;-66
2022/12/03 01:52:30;;;;;;;3.63;3.43;;;19.00;40.40;;;;;;4980539;28;20465;-65
2022/12/03 01:54:58;;;;;;;4.20;4.00;;;19.00;40.40;;;;;;4978044;28;20486;-66
2022/12/03 01:57:27;;;;;;;3.60;3.40;;;19.00;40.40;;;;;;4982619;28;20521;-66
2022/12/03 01:59:55;;;;;;;3.97;3.77;;;19.00;40.40;;;;;;4975742;28;20474;-66
2022/12/03 02:02:26;;;;;;;3.80;3.60;;;19.00;40.40;;;;;;4995228;28;21037;-66
2022/12/03 02:04:53;;;;;;;3.90;3.70;;;19.00;40.30;;;;;;4995251;28;20438;-66
2022/12/03 02:07:23;;;;;;;4.23;3.93;;;19.00;40.30;;;;;;5000564;28;20495;-66
2022/12/03 02:09:49;;;;;;;3.83;3.63;;;19.00;40.30;;;;;;4996619;28;20512;-66
2022/12/03 02:12:18;;;;;;;3.80;3.50;;;19.00;40.30;;;;;;4998292;28;20438;-66
2022/12/03 02:14:44;;;;;;;5.30;3.93;;;19.00;40.30;;;;;;4996054;28;20675;-66
2022/12/03 02:17:11;;;;;;;4.60;4.30;;;19.00;40.40;;;;;;4994972;28;20493;-66
2022/12/03 02:19:36;;;;;;;3.70;3.47;;;19.00;40.30;;;;;;4997129;28;20503;-66
2022/12/03 02:22:28;;;;;;;4.03;3.80;;;19.00;40.30;;;;;;4993768;28;20451;-66
2022/12/03 02:25:06;;;;;;;3.57;3.37;;;19.00;40.30;;;;;;4977645;28;20247;-66
2022/12/03 02:27:31;;;;;;;3.30;3.10;;;19.00;40.30;;;;;;4984822;28;20504;-66
2022/12/03 02:29:57;;;;;;;3.83;3.53;;;19.00;40.30;;;;;;4977493;28;20798;-66
2022/12/03 02:32:22;;;;;;;3.50;3.30;;;19.00;40.30;;;;;;4975346;28;20215;-66
2022/12/03 02:34:49;;;;;;;3.80;3.60;;;18.90;40.20;;;;;;4981535;28;20247;-66
2022/12/03 02:37:20;;;;;;;4.07;3.77;;;19.00;40.30;;;;;;4990683;28;20222;-66
2022/12/03 02:39:53;;;;;;;3.23;3.03;;;19.00;40.30;;;;;;4980412;28;20566;-66
2022/12/03 02:42:34;;;;;;;3.87;3.67;;;19.00;40.40;;;;;;4979682;28;20451;-66
2022/12/03 02:45:03;;;;;;;3.00;2.80;;;19.00;40.40;;;;;;4978060;28;20469;-66
2022/12/03 02:47:30;;;;;;;3.60;3.40;;;19.00;40.40;;;;;;4978835;28;20489;-66
2022/12/03 02:49:56;;;;;;;3.57;3.37;;;19.00;40.30;;;;;;4995542;28;22820;-66
2022/12/03 02:52:22;;;;;;;3.60;3.40;;;18.90;40.20;;;;;;4987675;28;20493;-66
2022/12/03 02:54:48;;;;;;;4.40;4.00;;;19.00;40.30;;;;;;4976469;28;20946;-66
2022/12/03 02:57:15;;;;;;;3.67;3.47;;;19.00;40.30;;;;;;4988983;28;20214;-66
2022/12/03 02:59:41;;;;;;;3.57;3.37;;;19.00;40.30;;;;;;4980274;28;21013;-65
2022/12/03 03:02:07;;;;;;;3.47;3.20;;;19.00;40.30;;;;;;5002016;28;20443;-66
2022/12/03 03:04:32;;;;;;;3.50;3.30;;;19.00;40.30;;;;;;5000731;28;20450;-66
2022/12/03 03:06:58;;;;;;;3.80;3.50;;;19.00;40.30;;;;;;4999011;28;20230;-66
2022/12/03 03:09:24;;;;;;;3.63;3.43;;;19.00;40.30;;;;;;5001894;28;20239;-66
2022/12/03 03:11:50;;;;;;;3.17;2.97;;;19.00;40.30;;;;;;5000449;28;20247;-66
2022/12/03 03:14:15;;;;;;;3.60;3.30;;;19.00;40.30;;;;;;4985032;28;20515;-66
2022/12/03 03:16:41;;;;;;;3.30;3.10;;;19.00;40.30;;;;;;4983076;28;20645;-66
2022/12/03 03:19:06;;;;;;;3.20;3.00;;;18.90;40.20;;;;;;4983447;28;20564;-66
2022/12/03 03:21:32;;;;;;;3.37;3.17;;;19.00;40.20;;;;;;4979547;28;20968;-66
2022/12/03 03:23:58;;;;;;;4.70;4.30;;;18.90;40.20;;;;;;4983966;28;20219;-66
2022/12/03 03:26:23;;;;;;;2.97;2.77;;;18.90;40.20;;;;;;4980380;28;20209;-66
2022/12/03 03:28:50;;;;;;;3.83;3.53;;;19.00;40.20;;;;;;4983967;28;20869;-66
2022/12/03 03:31:21;;;;;;;3.20;3.00;;;18.90;40.20;;;;;;4981810;28;20212;-66
2022/12/03 03:33:49;;;;;;;3.10;2.90;;;19.00;40.20;;;;;;4983580;28;20462;-66
2022/12/03 03:36:15;;;;;;;3.30;3.10;;;18.90;40.20;;;;;;4983114;28;20665;-65
2022/12/03 03:38:41;;;;;;;3.27;3.07;;;19.00;40.20;;;;;;4980441;28;20436;-66
2022/12/03 03:41:09;;;;;;;3.00;2.80;;;19.00;40.20;;;;;;4981651;28;20492;-66
2022/12/03 03:43:37;;;;;;;3.37;3.07;;;19.00;40.20;;;;;;4988360;28;20236;-65
2022/12/03 03:46:04;;;;;;;3.20;3.00;;;19.00;40.20;;;;;;4984104;28;20448;-65
2022/12/03 03:48:30;;;;;;;3.37;3.17;;;18.90;40.10;;;;;;4982286;28;20444;-66
2022/12/03 03:50:56;;;;;;;3.30;3.10;;;19.00;40.30;;;;;;4982520;28;22267;-66
2022/12/03 03:53:22;;;;;;;3.53;3.33;;;18.90;40.20;;;;;;4998672;28;20705;-65
2022/12/03 03:55:49;;;;;;;3.03;2.83;;;19.00;40.20;;;;;;4999995;28;20218;-66
2022/12/03 03:58:14;;;;;;;3.00;2.80;;;19.00;40.20;;;;;;4998590;28;20467;-66
2022/12/03 04:00:42;;;;;;;3.10;2.90;;;19.00;40.30;;;;;;4999657;28;20826;-65
2022/12/03 04:03:09;;;;;;;3.60;3.40;;;19.00;40.20;;;;;;4991827;28;20234;-66
2022/12/03 04:05:35;;;;;;;3.27;3.07;;;18.90;40.10;;;;;;4984717;28;20450;-66
2022/12/03 04:08:00;;;;;;;3.63;3.43;;;18.90;40.10;;;;;;4985114;28;20431;-65
2022/12/03 04:13:10;;;;;;;3.20;3.00;;;18.90;40.10;;;;;;4983349;28;20231;-66
2022/12/03 04:15:35;;;;;;;3.00;2.80;;;18.90;40.10;;;;;;5008482;28;20419;-66
2022/12/03 04:20:45;;;;;;;2.60;2.40;;;18.90;40.10;;;;;;4982997;28;20567;-66
2022/12/03 04:23:11;;;;;;;3.37;3.17;;;18.90;40.10;;;;;;4991952;28;20473;-66
2022/12/03 04:35:41;;;;;;;3.00;2.80;;;18.90;40.00;;;;;;4981540;28;20528;-66
2022/12/03 04:36:35;;;;;;;2.70;2.50;;;18.90;40.10;;;;;;4983353;28;20452;-66
2022/12/03 04:39:01;;;;;;;2.50;2.40;;;18.90;40.10;;;;;;4985282;28;20445;-65
2022/12/03 04:41:26;;;;;;;3.20;3.00;;;18.90;40.10;;;;;;4982781;28;20221;-66
2022/12/03 04:46:36;;;;;;;3.10;2.90;;;18.90;40.00;;;;;;4980705;28;20223;-66
2022/12/03 04:49:01;;;;;;;3.13;2.93;;;18.90;40.10;;;;;;4988634;28;20483;-66
2022/12/03 04:51:27;;;;;;;3.20;3.00;;;18.90;40.00;;;;;;4979344;28;20220;-65
2022/12/03 04:53:52;;;;;;;3.07;2.87;;;18.90;40.00;;;;;;4979561;28;20236;-65
2022/12/03 04:56:18;;;;;;;3.60;3.40;;;18.90;40.00;;;;;;4991151;28;20234;-67
2022/12/03 04:58:43;;;;;;;2.90;2.70;;;18.90;40.00;;;;;;4995982;28;20258;-67
2022/12/03 05:01:09;;;;;;;3.30;3.10;;;19.00;40.10;;;;;;4992374;28;20223;-65
2022/12/03 05:03:34;;;;;;;3.40;3.20;;;19.00;40.10;;;;;;5001199;28;20250;-66
2022/12/03 05:06:00;;;;;;;3.23;3.03;;;19.00;40.10;;;;;;5000547;28;20277;-66
2022/12/03 05:08:25;;;;;;;2.83;2.63;;;19.00;40.00;;;;;;4998981;28;20227;-67
2022/12/03 05:10:51;;;;;;;3.30;3.10;;;19.00;40.10;;;;;;4996498;28;20280;-66
2022/12/03 05:13:16;;;;;;;3.40;3.20;;;19.00;40.00;;;;;;4998897;28;20477;-67
2022/12/03 05:15:42;;;;;;;2.80;2.60;;;19.00;40.00;;;;;;4999409;28;20233;-67
2022/12/03 05:18:07;;;;;;;2.93;2.77;;;19.00;40.00;;;;;;4996465;28;20226;-66
2022/12/03 05:20:42;;;;;;;3.37;3.17;;;19.00;39.90;;;;;;4994569;28;20219;-66
2022/12/03 05:23:09;;;;;;;3.00;2.80;;;19.00;39.90;;;;;;4993281;28;20253;-65
2022/12/03 05:25:35;;;;;;;3.10;2.90;;;19.00;39.90;;;;;;4996510;28;20444;-65
2022/12/03 05:28:01;;;;;;;2.90;2.70;;;19.00;39.90;;;;;;4989992;28;20436;-65
2022/12/03 05:30:27;;;;;;;3.30;3.10;;;19.00;39.90;;;;;;4973719;28;20223;-67
2022/12/03 05:32:52;;;;;;;3.00;2.80;;;19.00;39.80;;;;;;4970640;28;20518;-67
2022/12/03 05:35:18;;;;;;;2.83;2.63;;;19.00;39.90;;;;;;4982804;28;20306;-67
2022/12/03 05:37:44;;;;;;;3.03;2.83;;;19.00;39.80;;;;;;4985090;28;20668;-66
2022/12/03 05:40:10;;;;;;;3.20;3.00;;;19.00;39.80;;;;;;4978412;28;20559;-66
2022/12/03 05:42:54;;;;;;;3.07;2.60;;;19.00;39.80;;;;;;4981811;28;20267;-65
2022/12/03 05:45:27;;;;;;;2.50;2.40;;;19.10;39.90;;;;;;4995017;28;20481;-66
2022/12/03 05:47:54;;;;;;;2.90;2.70;;;19.00;39.80;;;;;;4977049;28;20463;-66
2022/12/03 05:50:22;;;;;;;2.90;2.70;;;19.10;39.80;;;;;;4980907;28;20986;-66
2022/12/03 05:52:48;;;;;;;3.00;2.80;;;19.10;39.80;;;;;;4976181;28;20453;-66
2022/12/03 05:55:13;;;;;;;2.80;2.70;;;19.10;39.80;;;;;;4987678;28;20764;-66
2022/12/03 05:57:39;;;;;;;2.67;2.47;;;19.00;40.50;;;;;;4999080;28;20574;-66
2022/12/03 06:00:10;;;;;;;3.17;2.97;;;19.00;39.70;;;;;;4995241;28;20231;-66
2022/12/03 06:02:35;;;;;;;2.47;2.33;;;19.10;39.70;;;;;;4983753;28;20243;-66
2022/12/03 06:05:01;;;;;;;2.90;2.70;;;19.10;39.80;;;;;;4975887;28;20465;-65
2022/12/03 06:07:26;;;;;;;2.63;2.43;;;19.10;39.70;;;;;;4983260;28;20239;-66
2022/12/03 06:09:52;;;;;;;2.90;2.70;;;19.00;39.80;;;;;;5000488;28;20238;-65
2022/12/03 06:12:18;;;;;;;2.80;2.60;;;19.10;39.70;;;;;;4999398;28;20265;-67
2022/12/03 06:14:43;;;;;;;3.33;3.10;;;19.10;39.70;;;;;;4997579;28;20223;-66
2022/12/03 06:17:09;;;;;;;3.00;2.80;;;19.10;39.70;;;;;;4978825;28;20783;-66
2022/12/03 06:19:34;;;;;;;2.83;2.63;;;19.10;39.70;;;;;;4986657;28;20305;-66
2022/12/03 06:22:00;;;;;;;2.83;2.63;;;19.10;39.70;;;;;;4985352;28;20226;-66
2022/12/03 06:24:26;;;;;;;2.57;2.37;;;19.10;39.70;;;;;;4982239;28;20295;-66
2022/12/03 06:26:51;;;;;;;3.10;2.90;;;19.10;39.70;;;;;;4990169;28;20691;-65
2022/12/03 06:29:17;;;;;;;3.10;2.90;;;19.10;39.70;;;;;;4978089;28;20230;-66
2022/12/03 06:31:42;;;;;;;3.07;2.87;;;19.10;39.60;;;;;;4982283;28;20599;-67
2022/12/03 06:34:08;;;;;;;3.13;2.93;;;19.10;39.60;;;;;;4980974;28;20219;-66
2022/12/03 06:36:33;;;;;;;3.47;3.27;;;19.10;39.60;;;;;;4984330;28;20707;-67
2022/12/03 06:38:59;;;;;;;4.33;2.93;;;19.10;39.60;;;;;;4982243;28;20692;-67
2022/12/03 06:41:24;;;;;;;2.70;2.50;;;19.10;39.60;;;;;;4989669;28;20687;-66
2022/12/03 06:43:50;;;;;;;3.10;2.90;;;19.10;39.70;;;;;;4986274;28;20230;-65
2022/12/03 06:46:15;;;;;;;8.20;3.80;;;19.10;39.60;;;;;;4982785;28;20242;-66
2022/12/03 06:48:41;;;;;;;2.90;2.70;;;19.10;39.60;;;;;;5005513;28;20211;-66
2022/12/03 06:51:06;;;;;;;3.00;2.80;;;19.10;39.60;;;;;;5000524;28;20212;-66
2022/12/03 06:53:32;;;;;;;3.60;3.40;;;19.10;39.60;;;;;;5004113;28;20561;-66
2022/12/03 06:55:57;;;;;;;3.40;3.10;;;19.10;39.60;;;;;;5001852;28;20231;-66
2022/12/03 06:58:23;;;;;;;2.57;2.47;;;19.10;39.60;;;;;;4988019;28;20230;-66
2022/12/03 07:00:48;;;;;;;3.17;2.97;;;19.10;39.60;;;;;;4990215;28;20212;-66
2022/12/03 07:03:14;;;;;;;3.07;2.87;;;19.10;39.60;;;;;;4995138;28;20262;-66
2022/12/03 07:05:40;;;;;;;2.70;2.50;;;19.10;39.60;;;;;;4989585;28;20239;-66
2022/12/03 07:08:05;;;;;;;2.63;2.43;;;19.10;39.60;;;;;;4986952;28;20643;-67
2022/12/03 07:10:31;;;;;;;2.70;2.50;;;19.10;39.60;;;;;;4987180;28;20239;-66
2022/12/03 07:12:56;;;;;;;2.73;2.53;;;19.10;39.60;;;;;;4982792;28;20233;-66
2022/12/03 07:15:22;;;;;;;2.83;2.63;;;19.10;39.60;;;;;;4983590;28;20248;-66
2022/12/03 07:17:47;;;;;;;3.30;3.10;;;19.10;39.60;;;;;;4986130;28;20221;-68
2022/12/03 07:20:13;;;;;;;3.03;2.83;;;19.10;39.50;;;;;;4987416;28;20234;-67
2022/12/03 07:22:39;;;;;;;3.50;3.30;;;19.10;39.50;;;;;;4977251;28;20315;-67
2022/12/03 07:25:05;;;;;;;3.30;3.10;;;19.10;39.50;;;;;;4985101;28;20656;-67
2022/12/03 07:27:30;;;;;;;3.00;2.80;;;19.20;39.60;;;;;;4980932;28;20274;-68
2022/12/03 07:29:56;;;;;;;3.10;2.90;;;19.20;39.60;;;;;;4984916;28;20425;-67
2022/12/03 07:32:21;;;;;;;3.63;3.30;;;19.20;39.50;;;;;;4982590;28;20727;-67
2022/12/03 07:34:47;;;;;;;3.23;3.00;;;19.20;39.40;;;;;;4982849;28;20686;-67
2022/12/03 07:37:12;;;;;;;2.93;2.73;;;19.20;39.30;;;;;;4992168;28;20852;-66
2022/12/03 07:39:38;;;;;;;2.83;2.63;;;19.20;39.30;;;;;;5000701;28;20827;-66
2022/12/03 07:42:03;;;;;;;2.93;2.63;;;19.20;39.30;;;;;;4978012;28;20245;-67
2022/12/03 07:44:30;;;;;;;3.33;3.13;;;19.20;39.30;;;;;;4981017;28;20224;-67
2022/12/03 07:46:56;;;;;;;2.97;2.83;;;19.20;39.30;;;;;;4973637;28;20243;-67
2022/12/03 07:49:22;;;;;;;3.60;3.40;;;19.20;39.30;;;;;;4985113;28;20478;-66
2022/12/03 07:51:53;;;;;;;2.83;2.63;;;19.20;39.30;;;;;;5008500;28;20456;-67
2022/12/03 07:54:22;;;;;;;3.20;3.00;;;19.20;39.30;;;;;;5002081;28;20223;-67
2022/12/03 07:56:48;;;;;;;2.77;2.57;;;19.20;39.30;;;;;;4998107;28;20432;-67
2022/12/03 07:59:14;;;;;;;2.87;2.67;;;19.20;39.30;;;;;;4990199;28;20428;-67
2022/12/03 08:01:40;;;;;;;2.87;2.67;;;19.20;39.30;;;;;;4997210;28;20223;-66
2022/12/03 08:04:06;;;;;;;3.00;2.80;;;19.20;39.40;;;;;;4999665;28;20881;-67
2022/12/03 08:06:32;;;;;;;2.93;2.73;;;19.20;39.40;;;;;;4999478;28;22073;-67
2022/12/03 08:08:57;;;;;;;3.97;3.57;;;19.20;39.40;;;;;;4988580;28;20523;-65
2022/12/03 08:11:23;;;;;;;3.43;3.13;;;19.20;39.50;;;;;;4980586;28;20263;-65
2022/12/03 08:13:49;;;;;;;2.90;2.70;;;19.10;39.40;;;;;;4981014;28;20283;-66
2022/12/03 08:16:20;;;;;;;4.30;2.87;;;19.20;39.50;;;;;;4983352;28;20598;-66
2022/12/03 08:18:47;;;;;;;3.07;2.87;;;19.10;39.40;;;;;;4985152;28;20235;-66
2022/12/03 08:21:15;;;;;;;3.00;2.80;;;19.10;39.50;;;;;;4988442;28;20758;-66
2022/12/03 08:23:41;;;;;;;3.63;3.40;;;19.10;39.50;;;;;;4994535;28;20923;-67
2022/12/03 08:26:24;;;;;;;3.30;3.10;;;19.20;39.60;;;;;;4995322;28;20419;-67
2022/12/03 08:28:51;;;;;;;3.33;3.13;;;19.10;39.50;;;;;;4995543;28;20435;-67
2022/12/03 08:31:24;;;;;;;2.50;2.30;;;19.20;39.60;;;;;;4991753;28;20424;-67
2022/12/03 08:33:52;;;;;;;3.47;3.27;;;19.10;39.50;;;;;;4987596;28;20428;-67
2022/12/03 08:36:20;;;;;;;3.20;3.00;;;19.20;39.60;;;;;;4976750;28;21396;-67
2022/12/03 08:38:55;;;;;;;3.77;3.57;;;19.10;40.30;;;;;;4974286;28;20474;-67
2022/12/03 08:44:26;;;;;;;3.97;3.20;;;19.10;39.50;;;;;;4997305;28;20552;-66
2022/12/03 08:47:13;;;;;;;4.00;3.10;;;19.10;39.60;;;;;;4978485;28;20444;-66
2022/12/03 08:49:39;;;;;;;3.90;3.50;;;19.10;39.60;;;;;;4970559;28;20421;-66
2022/12/03 08:52:25;;;;;;;3.53;3.30;;;19.10;39.70;;;;;;4991647;28;20892;-67
2022/12/03 08:54:53;;;;;;;5.63;3.20;;;19.10;39.60;;;;;;4983204;28;20432;-67
2022/12/03 08:57:40;;;;;;;4.23;3.33;;;19.10;39.70;;;;;;4980701;28;20436;-67
2022/12/03 09:00:22;;;;;;;3.00;2.80;;;19.20;39.80;;;;;;4992776;28;20474;-63
2022/12/03 09:02:51;;;;;;;6.87;3.20;;;19.10;39.70;;;;;;4977261;28;20455;-66
2022/12/03 09:05:29;;;;;;;4.20;3.30;;;19.20;40.60;;;;;;4982406;28;20419;-65
2022/12/03 09:07:54;;;;;;;5.07;3.13;;;19.20;39.80;;;;;;5000345;28;20454;-63
2022/12/03 09:10:20;;;;;;;7.83;4.10;;;19.20;39.80;;;;;;4994874;28;20918;-67
2022/12/03 09:12:45;;;;;;;3.77;2.70;;;19.20;39.80;;;;;;4997340;28;20227;-67
2022/12/03 09:15:11;;;;;;;5.60;3.60;;;19.20;39.90;;;;;;4998281;28;20226;-66
2022/12/03 09:17:37;;;;;;;23.27;7.13;;;19.20;39.80;;;;;;4991184;28;20731;-65
2022/12/03 09:20:04;;;;;;;24.80;5.83;;;19.20;39.90;;;;;;4997432;28;20258;-66
2022/12/03 09:22:30;;;;;;;41.07;6.20;;;19.20;39.90;;;;;;4990574;28;20754;-66
2022/12/03 09:24:55;;;;;;;24.40;6.00;;;19.20;39.90;;;;;;4986705;28;20439;-66
2022/12/03 09:27:21;;;;;;;33.90;5.70;;;19.20;39.90;;;;;;4997035;28;20258;-64
2022/12/03 09:29:48;;;;;;;31.03;7.13;;;19.20;40.70;;;;;;4980421;28;20241;-67
2022/12/03 09:32:13;;;;;;;21.13;4.93;;;19.20;40.00;;;;;;4981583;28;20508;-66
2022/12/03 09:34:39;;;;;;;17.70;6.20;;;19.20;39.90;;;;;;4998534;28;20469;-63
2022/12/03 09:37:04;;;;;;;19.57;5.40;;;19.20;39.90;;;;;;4996661;28;20638;-65
2022/12/03 09:39:30;;;;;;;13.20;4.57;;;19.20;39.90;;;;;;4994568;28;20220;-63
2022/12/03 09:41:55;;;;;;;7.07;4.03;;;19.30;40.10;;;;;;4993081;28;20235;-63
2022/12/03 09:44:21;;;;;;;14.30;4.10;;;19.30;40.10;;;;;;4993153;28;20549;-63
2022/12/03 09:46:47;;;;;;;14.90;4.03;;;19.30;40.10;;;;;;4983912;28;20236;-63
2022/12/03 09:49:16;;;;;;;15.37;5.30;;;19.30;40.10;;;;;;4994547;28;20764;-63
2022/12/03 09:51:43;;;;;;;13.07;4.33;;;19.30;40.10;;;;;;4983187;28;20440;-64
2022/12/03 09:54:12;;;;;;;10.83;3.80;;;19.30;40.10;;;;;;4994989;28;20451;-63
2022/12/03 09:56:38;;;;;;;5.10;3.50;;;19.30;40.10;;;;;;4996674;28;20420;-63
2022/12/03 09:59:14;;;;;;;10.97;4.77;;;19.30;40.10;;;;;;4998820;28;20465;-64
2022/12/03 10:01:39;;;;;;;8.43;3.87;;;19.30;40.10;;;;;;4977947;28;20224;-66
2022/12/03 10:04:05;;;;;;;7.53;3.53;;;19.30;40.10;;;;;;4978232;28;20653;-65
2022/12/03 10:06:31;;;;;;;15.20;4.23;;;19.30;40.20;;;;;;4981290;28;20295;-63
2022/12/03 10:08:58;;;;;;;9.40;4.00;;;19.30;40.10;;;;;;4982309;28;20784;-65
2022/12/03 10:11:25;;;;;;;12.13;3.60;;;19.30;40.90;;;;;;4987474;28;20227;-63
2022/12/03 10:13:52;;;;;;;5.67;3.60;;;19.30;40.20;;;;;;4983444;28;20465;-63
2022/12/03 10:16:19;;;;;;;3.90;3.00;;;19.40;40.20;;;;;;4983749;28;20944;-63
2022/12/03 10:18:54;;;;;;;5.43;3.40;;;19.30;40.10;;;;;;4986524;28;20431;-62
2022/12/03 10:21:29;;;;;;;3.77;3.50;;;19.30;40.00;;;;;;5000410;28;20443;-63
2022/12/03 10:24:16;;;;;;;3.90;3.23;;;19.30;40.10;;;;;;4987843;28;20473;-67
2022/12/03 10:26:43;;;;;;;4.90;2.93;;;19.40;40.10;;;;;;4986786;28;21035;-65
2022/12/03 10:29:12;;;;;;;5.03;3.53;;;19.30;40.10;;;;;;4985319;28;20457;-65
2022/12/03 10:31:38;;;;;;;4.43;3.10;;;19.30;40.90;;;;;;4997181;28;20940;-64
2022/12/03 10:34:04;;;;;;;4.27;3.23;;;19.40;40.20;;;;;;5001258;28;20423;-66
2022/12/03 10:36:29;;;;;;;10.90;3.47;;;19.40;40.20;;;;;;4989438;28;20867;-66
2022/12/03 10:39:11;;;;;;;4.63;4.17;;;19.40;40.20;;;;;;4988525;28;20652;-66
2022/12/03 10:41:38;;;;;;;3.20;2.90;;;19.40;40.20;;;;;;4980406;28;20281;-66
2022/12/03 10:44:14;;;;;;;6.30;4.03;;;19.40;40.20;;;;;;4987477;28;20451;-64
2022/12/03 10:46:40;;;;;;;2.67;2.47;;;19.40;40.20;;;;;;4982503;28;20472;-67
2022/12/03 10:49:23;;;;;;;5.37;3.00;;;19.30;40.10;;;;;;4968935;28;20454;-67
2022/12/03 10:51:49;;;;;;;3.23;3.03;;;19.40;40.30;;;;;;4974666;28;20223;-67
2022/12/03 10:54:19;;;;;;;4.10;3.70;;;19.30;40.20;;;;;;4993645;28;20465;-67
2022/12/03 10:56:46;;;;;;;4.93;3.83;;;19.30;40.20;;;;;;4999047;28;20223;-67
2022/12/03 10:59:15;;;;;;;5.97;3.20;;;19.30;40.20;;;;;;4999958;28;20539;-65
2022/12/03 11:01:41;;;;;;;6.43;3.90;;;19.40;40.40;;;;;;4983759;28;20493;-65
2022/12/03 11:04:20;;;;;;;10.63;3.90;;;19.40;40.30;;;;;;4986895;28;20819;-65
2022/12/03 11:06:46;;;;;;;8.30;3.50;;;19.30;40.20;;;;;;5002623;28;20218;-65
2022/12/03 11:09:18;;;;;;;6.00;4.27;;;19.40;40.30;;;;;;5004559;28;20508;-65
2022/12/03 11:11:44;;;;;;;5.50;3.93;;;19.30;40.20;;;;;;4987681;28;20440;-65
2022/12/03 11:14:09;;;;;;;5.50;4.43;;;19.30;40.30;;;;;;4987218;28;20540;-65
2022/12/03 11:16:38;;;;;;;3.40;3.17;;;19.30;40.20;;;;;;4982701;28;20223;-65
2022/12/03 11:19:12;;;;;;;4.13;3.83;;;19.30;40.30;;;;;;4984923;28;20238;-65
2022/12/03 11:22:02;;;;;;;4.03;3.10;;;19.30;40.30;;;;;;5000479;28;20435;-65
2022/12/03 11:24:28;;;;;;;5.40;3.90;;;19.30;40.30;;;;;;4999973;28;20429;-65
2022/12/03 11:26:54;;;;;;;3.97;3.50;;;19.30;40.30;;;;;;4997404;28;20439;-66
2022/12/03 11:29:56;;;;;;;4.73;3.00;;;19.30;40.30;;;;;;5001248;28;20942;-67
2022/12/03 11:32:43;;;;;;;3.60;3.30;;;19.30;40.30;;;;;;4995934;28;20243;-62
2022/12/03 11:35:32;;;;;;;3.77;3.50;;;19.30;40.30;;;;;;4970556;28;22098;-62
2022/12/03 11:38:39;;;;;;;254.53;48.87;;;19.30;40.50;;;;;;4983667;28;20454;-61
2022/12/03 11:41:26;;;;;;;169.37;28.40;;;19.30;40.30;;;;;;4987067;28;20468;-62
2022/12/03 11:43:52;;;;;;;502.73;92.23;;;19.40;40.30;;;;;;4979242;28;20462;-63
2022/12/03 11:46:20;;;;;;;198.27;42.03;;;19.40;40.10;;;;;;4982592;28;20472;-63
2022/12/03 11:48:46;;;;;;;164.47;29.90;;;19.40;40.00;;;;;;4978543;28;20231;-61
2022/12/03 11:51:17;;;;;;;110.33;23.23;;;19.50;40.00;;;;;;4983456;28;20948;-61
2022/12/03 11:53:44;;;;;;;162.17;31.93;;;19.60;39.70;;;;;;4974685;28;20532;-62
2022/12/03 11:56:17;;;;;;;191.70;37.33;;;19.70;39.40;;;;;;4989016;28;20502;-60
2022/12/03 11:58:44;;;;;;;166.00;35.17;;;19.70;39.70;;;;;;4977920;28;20436;-61
2022/12/03 12:01:10;;;;;;;195.33;38.30;;;19.80;39.00;;;;;;4984310;28;20435;-61
2022/12/03 12:03:43;;;;;;;161.83;38.30;;;19.90;39.10;;;;;;4985666;28;20536;-61
2022/12/03 12:06:11;;;;;;;92.27;27.70;;;19.90;39.10;;;;;;4982488;28;21024;-60
2022/12/03 12:08:40;;;;;;;108.43;29.43;;;19.90;39.10;;;;;;4983480;28;20436;-60
2022/12/03 12:11:36;;;;;;;111.97;29.63;;;19.90;39.10;;;;;;4978964;28;20441;-61
2022/12/03 12:14:08;;;;;;;84.10;27.73;;;19.80;39.00;;;;;;4979880;28;20462;-61
2022/12/03 12:16:42;;;;;;;114.90;27.37;;;19.80;39.30;;;;;;4979706;28;20446;-63
2022/12/03 12:19:27;;;;;;;86.40;25.37;;;19.80;39.60;;;;;;4974215;28;20429;-60
2022/12/03 12:21:53;;;;;;;85.23;24.00;;;19.70;39.60;;;;;;4976881;28;20436;-63
2022/12/03 12:24:28;;;;;;;88.17;23.90;;;19.70;39.80;;;;;;4986694;28;20704;-62
2022/12/03 12:26:54;;;;;;;66.67;22.47;;;19.70;39.90;;;;;;4991724;28;20517;-61
2022/12/03 12:29:19;;;;;;;81.57;22.80;;;19.70;40.00;;;;;;4993426;28;22004;-61
2022/12/03 12:31:46;;;;;;;74.03;20.97;;;19.70;40.10;;;;;;4999105;28;20453;-61
2022/12/03 12:34:11;;;;;;;68.90;20.37;;;19.70;40.20;;;;;;4990717;28;20231;-62
2022/12/03 12:36:37;;;;;;;58.70;18.00;;;19.70;40.20;;;;;;4995061;28;20447;-61
2022/12/03 12:39:14;;;;;;;64.40;20.63;;;19.70;40.30;;;;;;4987491;28;20570;-61
2022/12/03 12:41:41;;;;;;;65.87;19.37;;;19.70;40.20;;;;;;4981335;28;20305;-63
2022/12/03 12:44:11;;;;;;;61.83;19.30;;;19.60;40.20;;;;;;4980281;28;21159;-61
2022/12/03 12:46:37;;;;;;;33.93;13.70;;;19.60;40.20;;;;;;4982530;28;20914;-62
2022/12/03 12:49:11;;;;;;;44.90;16.17;;;19.60;40.00;;;;;;4976249;28;20524;-61
2022/12/03 12:51:44;;;;;;;45.33;16.10;;;19.60;40.10;;;;;;4973851;28;20216;-63
2022/12/03 12:54:12;;;;;;;43.40;16.80;;;19.60;40.10;;;;;;4974635;28;20593;-61
2022/12/03 12:56:41;;;;;;;44.97;17.10;;;19.60;40.10;;;;;;4977111;28;21533;-62
2022/12/03 12:59:12;;;;;;;39.87;14.87;;;19.60;40.20;;;;;;4983398;28;20448;-61
2022/12/03 13:01:38;;;;;;;43.43;16.00;;;19.60;40.20;;;;;;4981930;28;20460;-61
2022/12/03 13:04:12;;;;;;;36.53;16.77;;;19.60;40.30;;;;;;4989635;28;20445;-62
2022/12/03 13:06:38;;;;;;;33.33;12.87;;;19.60;40.30;;;;;;4982423;28;20445;-64